createdAt,value
2022-10-20T00:03:57.830Z,46.71
2022-10-20T00:09:02.365Z,46.74
2022-10-20T00:14:04.748Z,46.50
2022-10-20T00:19:06.661Z,46.46
2022-10-20T00:24:08.693Z,46.57
2022-10-20T00:29:10.639Z,46.43
2022-10-20T00:34:12.587Z,46.44
2022-10-20T00:39:14.526Z,46.80
2022-10-20T00:44:58.098Z,46.70
2022-10-20T00:50:08.784Z,46.70
2022-10-20T00:55:14.284Z,46.80
2022-10-20T01:00:16.992Z,46.30
2022-10-20T01:05:19.233Z,46.62
2022-10-20T01:10:22.541Z,46.58
2022-10-20T01:16:01.658Z,46.38
2022-10-20T01:21:22.021Z,46.57
2022-10-20T01:27:17.559Z,46.70
2022-10-20T01:32:36.333Z,46.84
2022-10-20T01:38:15.746Z,46.80
2022-10-20T01:43:21.247Z,46.47
2022-10-20T01:48:26.522Z,46.50
2022-10-20T01:53:28.655Z,46.68
2022-10-20T01:58:33.411Z,46.69
2022-10-20T02:03:56.579Z,46.52
2022-10-20T02:09:09.126Z,46.43
2022-10-20T02:14:14.812Z,46.68
2022-10-20T02:19:19.798Z,46.62
2022-10-20T02:24:26.717Z,46.30
2022-10-20T02:29:31.158Z,46.43
2022-10-20T02:34:32.958Z,46.57
2022-10-20T02:39:34.795Z,46.79
2022-10-20T02:44:36.541Z,46.34
2022-10-20T02:49:38.419Z,46.39
2022-10-20T02:54:40.540Z,46.63
2022-10-20T02:59:42.367Z,46.43
2022-10-20T03:04:44.443Z,46.54
2022-10-20T03:09:46.369Z,46.69
2022-10-20T03:14:48.278Z,46.54
2022-10-20T03:19:50.066Z,46.46
2022-10-20T03:24:52.126Z,46.32
2022-10-20T03:29:53.919Z,46.51
2022-10-20T03:34:55.621Z,46.65
2022-10-20T03:39:57.475Z,46.29
2022-10-20T03:44:59.333Z,46.46
2022-10-20T03:50:01.275Z,46.64
2022-10-20T03:55:03.458Z,46.37
2022-10-20T04:00:06.035Z,46.44
2022-10-20T04:05:09.181Z,46.57
2022-10-20T04:10:11.957Z,46.64
2022-10-20T04:15:14.123Z,46.71
2022-10-20T04:20:16.409Z,46.60
2022-10-20T04:25:19.281Z,46.75
2022-10-20T04:30:21.235Z,46.33
2022-10-20T04:35:23.127Z,46.67
2022-10-20T04:40:25.605Z,46.46
2022-10-20T04:45:29.898Z,46.43
2022-10-20T04:50:33.133Z,46.61
2022-10-20T04:55:35.509Z,46.72
2022-10-20T05:00:40.936Z,46.61
2022-10-20T05:05:43.075Z,46.76
2022-10-20T05:10:44.945Z,46.50
2022-10-20T05:15:52.811Z,46.47
2022-10-20T05:21:08.382Z,46.59
2022-10-20T05:26:18.628Z,46.44
2022-10-20T05:31:23.170Z,46.51
2022-10-20T05:36:26.846Z,46.51
2022-10-20T05:41:33.378Z,46.56
2022-10-20T05:46:41.777Z,46.60
2022-10-20T05:51:45.472Z,46.33
2022-10-20T05:56:47.458Z,46.57
2022-10-20T06:01:49.510Z,46.58
2022-10-20T06:06:54.949Z,46.50
2022-10-20T06:11:56.881Z,46.54
2022-10-20T06:16:58.853Z,46.94
2022-10-20T06:22:03.979Z,46.87
2022-10-20T06:27:08.395Z,46.66
2022-10-20T06:32:10.434Z,46.82
2022-10-20T06:37:12.241Z,46.71
2022-10-20T06:42:14.056Z,48.33
2022-10-20T06:47:15.820Z,48.03
2022-10-20T06:52:17.782Z,47.39
2022-10-20T06:57:19.761Z,47.38
2022-10-20T07:02:22.078Z,48.29
2022-10-20T07:07:23.879Z,47.61
2022-10-20T07:12:25.824Z,47.47
2022-10-20T07:17:27.502Z,47.62
2022-10-20T07:22:29.345Z,47.00
2022-10-20T07:27:31.151Z,46.95
2022-10-20T07:32:32.892Z,47.08
2022-10-20T07:37:35.089Z,46.96
2022-10-20T07:42:37.250Z,47.14
2022-10-20T07:47:40.107Z,46.87
2022-10-20T07:52:44.073Z,46.77
2022-10-20T07:57:46.348Z,47.03
2022-10-20T08:02:48.238Z,46.88
2022-10-20T08:07:50.114Z,46.92
2022-10-20T08:12:52.097Z,46.88
2022-10-20T08:17:53.825Z,46.74
2022-10-20T08:22:55.748Z,46.93
2022-10-20T08:33:00.301Z,46.78
2022-10-20T08:38:02.186Z,46.66
2022-10-20T08:43:04.061Z,46.64
2022-10-20T08:48:07.157Z,46.65
2022-10-20T08:53:11.820Z,46.93
2022-10-20T08:58:16.469Z,46.84
2022-10-20T09:03:24.413Z,46.77
2022-10-20T09:08:30.683Z,46.41
2022-10-20T09:13:33.379Z,46.40
2022-10-20T09:18:35.438Z,46.94
2022-10-20T09:23:42.957Z,46.82
2022-10-20T09:29:11.779Z,46.68
2022-10-20T09:34:20.134Z,46.64
2022-10-20T09:39:28.169Z,46.67
2022-10-20T09:44:32.913Z,46.76
2022-10-20T09:49:37.508Z,46.37
2022-10-20T09:54:39.353Z,46.51
2022-10-20T09:59:46.205Z,46.65
2022-10-20T10:04:50.542Z,46.56
2022-10-20T10:10:22.179Z,46.83
2022-10-20T10:15:24.118Z,46.43
2022-10-20T10:20:34.644Z,46.49
2022-10-20T10:25:36.597Z,46.73
2022-10-20T10:30:38.954Z,46.47
2022-10-20T10:35:44.034Z,46.69
2022-10-20T10:41:02.935Z,46.94
2022-10-20T10:46:12.520Z,47.04
2022-10-20T10:51:46.556Z,46.62
2022-10-20T10:56:51.008Z,46.60
2022-10-20T11:02:21.605Z,46.57
2022-10-20T11:07:47.965Z,46.90
2022-10-20T11:13:11.315Z,46.67
2022-10-20T11:18:37.510Z,46.67
2022-10-20T11:24:11.702Z,47.41
2022-10-20T11:29:45.802Z,47.61
2022-10-20T11:35:02.800Z,47.69
2022-10-20T11:40:10.695Z,47.18
2022-10-20T11:45:24.474Z,47.33
2022-10-20T11:50:26.532Z,47.10
2022-10-20T11:55:48.389Z,46.90
2022-10-20T12:01:25.571Z,47.10
2022-10-20T12:06:51.707Z,47.07
2022-10-20T12:12:05.508Z,47.35
2022-10-20T12:17:28.575Z,47.19
2022-10-20T12:22:30.425Z,47.28
2022-10-20T12:27:32.884Z,47.29
2022-10-20T12:32:36.806Z,47.08
2022-10-20T12:37:42.210Z,47.09
2022-10-20T12:42:49.718Z,47.05
2022-10-20T12:47:53.945Z,47.19
2022-10-20T12:52:58.154Z,46.99
2022-10-20T12:58:18.577Z,46.92
2022-10-20T13:03:32.489Z,46.85
2022-10-20T13:08:36.844Z,46.89
2022-10-20T13:13:56.578Z,46.66
2022-10-20T13:19:01.358Z,47.16
2022-10-20T13:24:14.338Z,47.04
2022-10-20T13:29:24.785Z,46.96
2022-10-20T13:34:38.468Z,46.86
2022-10-20T13:39:43.182Z,47.02
2022-10-20T13:44:50.761Z,46.74
2022-10-20T13:50:03.126Z,46.78
2022-10-20T13:55:07.697Z,46.93
2022-10-20T14:00:22.610Z,47.24
2022-10-20T14:05:25.649Z,46.90
2022-10-20T14:10:43.460Z,47.52
2022-10-20T14:15:49.177Z,47.92
2022-10-20T14:21:00.200Z,47.77
2022-10-20T14:26:04.127Z,47.42
2022-10-20T14:31:08.278Z,47.30
2022-10-20T14:36:21.011Z,47.56
2022-10-20T14:41:29.071Z,47.41
2022-10-20T14:46:45.277Z,47.64
2022-10-20T14:51:57.064Z,47.12
2022-10-20T14:57:01.507Z,47.60
2022-10-20T15:02:13.087Z,47.46
2022-10-20T15:07:32.282Z,47.92
2022-10-20T15:12:42.879Z,48.40
2022-10-20T15:17:50.400Z,49.29
2022-10-20T15:22:54.721Z,49.29
2022-10-20T15:27:58.593Z,49.02
2022-10-20T15:33:00.332Z,48.65
2022-10-20T15:38:02.124Z,48.73
2022-10-20T15:43:04.155Z,48.61
2022-10-20T15:48:05.958Z,48.50
2022-10-20T15:53:08.019Z,48.49
2022-10-20T15:58:10.029Z,48.14
2022-10-20T16:03:17.974Z,48.16
2022-10-20T16:08:19.832Z,48.22
2022-10-20T16:13:21.642Z,48.15
2022-10-20T16:18:23.619Z,48.15
2022-10-20T16:23:25.585Z,48.27
2022-10-20T16:28:27.428Z,48.00
2022-10-20T16:33:29.129Z,49.20
2022-10-20T16:38:31.068Z,50.30
2022-10-20T16:43:36.458Z,51.63
2022-10-20T16:48:43.892Z,52.35
2022-10-20T16:53:48.526Z,51.74
2022-10-20T16:58:50.546Z,52.36
2022-10-20T17:03:53.702Z,51.91
2022-10-20T17:08:57.948Z,51.50
2022-10-20T17:14:00.067Z,51.51
2022-10-20T17:19:02.729Z,52.51
2022-10-20T17:24:04.961Z,52.01
2022-10-20T17:29:09.321Z,52.49
2022-10-20T17:34:11.023Z,52.69
2022-10-20T17:39:16.585Z,52.28
2022-10-20T17:44:18.373Z,52.36
2022-10-20T17:49:20.255Z,53.23
2022-10-20T17:54:22.997Z,52.94
2022-10-20T17:59:25.434Z,52.69
2022-10-20T18:04:27.466Z,52.46
2022-10-20T18:09:29.268Z,52.23
2022-10-20T18:14:31.146Z,52.07
2022-10-20T18:19:32.858Z,52.16
2022-10-20T18:24:35.812Z,52.10
2022-10-20T18:29:38.116Z,51.96
2022-10-20T18:34:40.035Z,52.05
2022-10-20T18:39:41.844Z,51.82
2022-10-20T18:44:43.667Z,51.88
2022-10-20T18:49:45.478Z,51.87
2022-10-20T18:54:47.302Z,51.71
2022-10-20T18:59:50.230Z,51.62
2022-10-20T19:04:51.883Z,51.45
2022-10-20T19:09:55.549Z,52.09
2022-10-20T19:14:57.375Z,52.61
2022-10-20T19:19:59.619Z,52.44
2022-10-20T19:25:01.364Z,52.94
2022-10-20T19:30:03.587Z,53.05
2022-10-20T19:35:06.135Z,53.23
2022-10-20T19:40:07.987Z,53.10
2022-10-20T19:45:09.950Z,53.14
2022-10-20T19:50:11.750Z,52.58
2022-10-20T19:55:13.579Z,52.61
2022-10-20T20:00:15.586Z,52.18
2022-10-20T20:05:17.630Z,52.07
2022-10-20T20:10:19.378Z,52.08
2022-10-20T20:15:21.568Z,52.37
2022-10-20T20:20:23.490Z,52.06
2022-10-20T20:25:25.410Z,51.79
2022-10-20T20:30:27.216Z,51.64
2022-10-20T20:35:29.296Z,51.72
2022-10-20T20:40:31.198Z,52.02
2022-10-20T20:45:32.975Z,51.75
2022-10-20T20:50:35.017Z,51.36
2022-10-20T20:55:36.808Z,51.70
2022-10-20T21:00:38.539Z,51.33
2022-10-20T21:05:40.269Z,51.05
2022-10-20T21:10:41.978Z,50.65
2022-10-20T21:15:44.070Z,50.92
2022-10-20T21:20:45.831Z,51.17
2022-10-20T21:25:49.530Z,50.76
2022-10-20T21:30:51.290Z,51.14
2022-10-20T21:35:53.106Z,50.89
2022-10-20T21:40:55.075Z,50.69
2022-10-20T21:45:57.014Z,50.97
2022-10-20T21:50:58.881Z,50.66
2022-10-20T21:56:00.671Z,50.36
2022-10-20T22:01:16.602Z,50.69
2022-10-20T22:06:26.640Z,50.60
2022-10-20T22:11:32.514Z,50.05
2022-10-20T22:16:37.509Z,50.16
2022-10-20T22:21:43.469Z,50.40
2022-10-20T22:26:45.712Z,49.90
2022-10-20T22:31:47.475Z,49.85
2022-10-20T22:36:49.182Z,50.24
2022-10-20T22:41:50.960Z,50.03
2022-10-20T22:46:52.728Z,50.01
2022-10-20T22:51:54.744Z,49.82
2022-10-20T22:56:57.105Z,49.98
2022-10-20T23:01:59.050Z,49.78
2022-10-20T23:12:04.185Z,49.85
2022-10-20T23:17:06.014Z,49.75
2022-10-20T23:22:07.897Z,49.89
2022-10-20T23:27:09.861Z,50.11
2022-10-20T23:32:11.887Z,49.65
2022-10-20T23:37:13.853Z,49.50
2022-10-20T23:42:15.925Z,49.72
2022-10-20T23:47:17.706Z,49.57
2022-10-20T23:52:19.612Z,50.18
2022-10-20T23:57:21.360Z,49.79
